createdAt,value
2022-11-15T00:01:48.562Z,87.95
2022-11-15T00:04:34.210Z,88.13
2022-11-15T00:07:48.416Z,88.01
2022-11-15T00:10:28.459Z,88.24
2022-11-15T00:13:14.381Z,88.44
2022-11-15T00:16:02.209Z,88.71
2022-11-15T00:18:50.552Z,88.93
2022-11-15T00:21:36.624Z,89.23
2022-11-15T00:24:22.478Z,89.22
2022-11-15T00:27:09.663Z,89.34
2022-11-15T00:29:55.497Z,89.49
2022-11-15T00:32:42.162Z,89.43
2022-11-15T00:35:28.144Z,89.64
2022-11-15T00:38:13.573Z,89.71
2022-11-15T00:40:59.354Z,89.80
2022-11-15T00:43:46.143Z,90.04
2022-11-15T00:46:31.698Z,90.12
2022-11-15T00:49:17.503Z,90.31
2022-11-15T00:52:03.512Z,90.49
2022-11-15T00:54:48.877Z,90.66
2022-11-15T00:57:34.565Z,90.65
2022-11-15T01:00:20.222Z,90.85
2022-11-15T01:03:05.716Z,90.63
2022-11-15T01:05:51.274Z,90.85
2022-11-15T01:08:37.162Z,90.83
2022-11-15T01:11:22.798Z,90.82
2022-11-15T01:14:08.482Z,90.80
2022-11-15T01:16:56.417Z,90.66
2022-11-15T01:19:42.099Z,90.89
2022-11-15T01:22:27.885Z,91.11
2022-11-15T01:25:13.669Z,90.95
2022-11-15T01:27:59.308Z,91.09
2022-11-15T01:30:44.917Z,91.26
2022-11-15T01:33:32.110Z,91.37
2022-11-15T01:36:25.269Z,91.58
2022-11-15T01:39:10.767Z,91.54
2022-11-15T01:41:56.835Z,91.62
2022-11-15T01:44:52.877Z,91.72
2022-11-15T01:47:51.616Z,91.76
2022-11-15T01:50:37.434Z,91.91
2022-11-15T01:53:25.926Z,91.97
2022-11-15T01:56:19.005Z,91.99
2022-11-15T01:59:09.099Z,91.74
2022-11-15T02:01:54.927Z,91.87
2022-11-15T02:04:48.308Z,91.81
2022-11-15T02:07:36.536Z,92.17
2022-11-15T02:10:25.363Z,92.01
2022-11-15T02:13:11.351Z,92.03
2022-11-15T02:16:05.843Z,92.37
2022-11-15T02:19:10.295Z,92.33
2022-11-15T02:22:33.129Z,92.46
2022-11-15T02:25:47.334Z,92.47
2022-11-15T02:29:06.043Z,92.58
2022-11-15T02:32:21.676Z,92.67
2022-11-15T02:35:59.446Z,92.90
2022-11-15T02:39:01.613Z,93.14
2022-11-15T02:41:58.878Z,93.33
2022-11-15T02:44:47.520Z,93.38
2022-11-15T02:47:42.246Z,93.48
2022-11-15T02:50:32.826Z,93.90
2022-11-15T02:53:26.094Z,93.72
2022-11-15T02:56:13.305Z,93.75
2022-11-15T02:59:19.316Z,93.94
2022-11-15T03:02:35.064Z,94.01
2022-11-15T03:06:04.462Z,94.24
2022-11-15T03:09:05.757Z,94.32
2022-11-15T03:12:22.678Z,94.19
2022-11-15T03:15:22.893Z,94.48
2022-11-15T03:18:31.035Z,94.57
2022-11-15T03:21:21.304Z,94.27
2022-11-15T03:24:09.514Z,94.39
2022-11-15T03:27:00.034Z,94.51
2022-11-15T03:29:53.723Z,94.42
2022-11-15T03:33:01.016Z,94.45
2022-11-15T03:35:48.873Z,94.42
2022-11-15T03:38:36.579Z,94.62
2022-11-15T03:42:17.457Z,94.42
2022-11-15T03:45:21.141Z,94.37
2022-11-15T03:48:17.237Z,94.31
2022-11-15T03:51:05.122Z,94.42
2022-11-15T03:53:51.386Z,94.51
2022-11-15T03:56:40.170Z,94.57
2022-11-15T03:59:25.924Z,94.52
2022-11-15T04:02:14.657Z,94.45
2022-11-15T04:05:00.195Z,94.63
2022-11-15T04:07:45.978Z,94.81
2022-11-15T04:10:32.226Z,94.99
2022-11-15T04:13:17.758Z,94.99
2022-11-15T04:16:04.847Z,94.77
2022-11-15T04:19:11.329Z,94.91
2022-11-15T04:22:15.303Z,94.84
2022-11-15T04:25:00.915Z,95.03
2022-11-15T04:27:46.547Z,94.87
2022-11-15T04:30:32.314Z,95.02
2022-11-15T04:33:17.856Z,94.83
2022-11-15T04:36:22.478Z,94.80
2022-11-15T04:39:09.025Z,94.87
2022-11-15T04:41:54.701Z,95.00
2022-11-15T04:44:41.445Z,94.96
2022-11-15T04:47:28.683Z,94.91
2022-11-15T04:50:15.782Z,94.79
2022-11-15T04:53:01.505Z,94.87
2022-11-15T04:55:47.911Z,94.81
2022-11-15T04:58:33.561Z,94.70
2022-11-15T05:01:19.410Z,94.85
2022-11-15T05:04:20.026Z,94.77
2022-11-15T05:07:05.726Z,94.74
2022-11-15T05:09:51.311Z,94.56
2022-11-15T05:12:37.062Z,94.66
2022-11-15T05:15:24.638Z,94.67
2022-11-15T05:18:10.453Z,94.46
2022-11-15T05:20:55.886Z,94.63
2022-11-15T05:23:42.484Z,94.71
2022-11-15T05:26:28.169Z,94.81
2022-11-15T05:29:13.631Z,94.96
2022-11-15T05:31:59.309Z,94.84
2022-11-15T05:34:46.181Z,94.92
2022-11-15T05:37:32.102Z,94.96
2022-11-15T05:40:20.066Z,95.12
2022-11-15T05:43:06.771Z,95.06
2022-11-15T05:45:52.801Z,95.23
2022-11-15T05:48:42.978Z,95.60
2022-11-15T05:51:30.285Z,95.42
2022-11-15T05:54:18.551Z,95.73
2022-11-15T05:57:06.116Z,96.12
2022-11-15T05:59:52.678Z,96.19
2022-11-15T06:02:38.405Z,96.39
2022-11-15T06:05:24.112Z,96.70
2022-11-15T06:08:09.914Z,96.79
2022-11-15T06:10:55.874Z,96.63
2022-11-15T06:13:41.414Z,96.75
2022-11-15T06:16:27.065Z,96.69
2022-11-15T06:19:13.987Z,96.61
2022-11-15T06:22:01.126Z,96.93
2022-11-15T06:24:47.818Z,96.24
2022-11-15T06:27:33.379Z,96.51
2022-11-15T06:30:19.678Z,96.50
2022-11-15T06:33:06.558Z,96.71
2022-11-15T06:35:52.682Z,96.65
2022-11-15T06:38:38.582Z,96.70
2022-11-15T06:41:24.250Z,96.78
2022-11-15T06:44:10.139Z,96.80
2022-11-15T06:46:56.498Z,97.00
2022-11-15T06:49:42.131Z,97.04
2022-11-15T06:52:53.127Z,96.97
2022-11-15T06:55:38.789Z,97.08
2022-11-15T06:58:24.571Z,97.10
2022-11-15T07:01:13.136Z,97.12
2022-11-15T07:03:58.870Z,97.02
2022-11-15T07:06:48.760Z,97.24
2022-11-15T07:09:34.250Z,97.33
2022-11-15T07:12:19.862Z,97.24
2022-11-15T07:15:06.651Z,97.30
2022-11-15T07:17:52.911Z,97.51
2022-11-15T07:20:38.532Z,97.54
2022-11-15T07:23:25.150Z,97.64
2022-11-15T07:26:10.760Z,97.49
2022-11-15T07:28:56.439Z,97.74
2022-11-15T07:31:42.127Z,97.88
2022-11-15T07:34:32.945Z,97.78
2022-11-15T07:37:18.661Z,98.04
2022-11-15T07:40:07.362Z,97.96
2022-11-15T07:42:56.889Z,97.91
2022-11-15T07:45:44.882Z,97.98
2022-11-15T07:48:42.637Z,97.89
2022-11-15T07:51:29.515Z,97.78
2022-11-15T07:54:15.288Z,97.86
2022-11-15T07:57:06.662Z,97.97
2022-11-15T07:59:53.897Z,97.91
2022-11-15T08:02:39.478Z,97.78
2022-11-15T08:05:25.146Z,97.54
2022-11-15T08:08:12.089Z,97.40
2022-11-15T08:11:01.271Z,97.41
2022-11-15T08:13:47.975Z,97.18
2022-11-15T08:16:33.830Z,97.10
2022-11-15T08:19:19.518Z,97.07
2022-11-15T08:22:05.355Z,96.86
2022-11-15T08:24:50.989Z,96.79
2022-11-15T08:27:36.645Z,97.03
2022-11-15T08:30:23.017Z,96.99
2022-11-15T08:33:13.607Z,97.21
2022-11-15T08:36:01.352Z,97.25
2022-11-15T08:38:46.822Z,97.20
2022-11-15T08:41:37.753Z,97.51
2022-11-15T08:44:25.011Z,97.43
2022-11-15T08:47:13.698Z,97.56
2022-11-15T08:49:59.354Z,97.57
2022-11-15T08:52:45.881Z,97.43
2022-11-15T08:55:31.165Z,97.37
2022-11-15T08:58:17.043Z,97.40
2022-11-15T09:01:04.128Z,97.34
2022-11-15T09:03:50.069Z,97.16
2022-11-15T09:06:39.669Z,96.96
2022-11-15T09:09:27.969Z,96.98
2022-11-15T09:12:13.874Z,96.78
2022-11-15T09:15:04.213Z,96.80
2022-11-15T09:17:50.106Z,96.41
2022-11-15T09:20:35.847Z,96.04
2022-11-15T09:23:21.909Z,96.06
2022-11-15T09:26:08.176Z,96.10
2022-11-15T09:28:54.073Z,95.86
2022-11-15T09:31:39.609Z,95.61
2022-11-15T09:34:25.257Z,95.30
2022-11-15T09:37:13.289Z,94.83
2022-11-15T09:39:59.923Z,94.38
2022-11-15T09:42:57.722Z,93.49
2022-11-15T09:46:08.039Z,92.79
2022-11-15T09:49:05.619Z,92.30
2022-11-15T09:51:55.991Z,92.12
2022-11-15T09:54:55.855Z,91.89
2022-11-15T09:57:46.708Z,91.69
2022-11-15T10:00:45.404Z,91.54
2022-11-15T10:03:19.025Z,91.26
2022-11-15T10:05:52.862Z,91.21
2022-11-15T10:08:48.380Z,90.51
2022-11-15T10:11:38.179Z,89.66
2022-11-15T10:14:19.662Z,89.12
2022-11-15T10:17:15.122Z,89.49
2022-11-15T10:20:22.830Z,89.24
2022-11-15T10:22:59.646Z,87.79
2022-11-15T10:25:30.062Z,86.46
2022-11-15T10:28:18.786Z,85.82
2022-11-15T10:30:56.349Z,85.45
2022-11-15T10:33:40.293Z,85.32
2022-11-15T10:36:10.578Z,84.99
2022-11-15T10:38:50.184Z,84.84
2022-11-15T10:41:31.130Z,84.76
2022-11-15T10:44:15.625Z,84.36
2022-11-15T10:46:48.079Z,83.23
2022-11-15T10:49:29.453Z,81.97
2022-11-15T10:52:14.726Z,81.12
2022-11-15T10:54:51.530Z,80.47
2022-11-15T10:57:27.573Z,80.65
2022-11-15T11:00:00.144Z,80.04
2022-11-15T11:02:36.126Z,78.90
2022-11-15T11:05:25.617Z,79.34
2022-11-15T11:08:11.188Z,79.16
2022-11-15T11:10:51.552Z,79.67
2022-11-15T11:13:30.173Z,79.40
2022-11-15T11:16:32.854Z,78.98
2022-11-15T11:19:29.524Z,78.09
2022-11-15T11:22:13.145Z,76.57
2022-11-15T11:24:48.869Z,77.40
2022-11-15T11:28:10.402Z,76.28
2022-11-15T11:30:49.196Z,75.12
2022-11-15T11:33:33.457Z,74.80
2022-11-15T11:36:12.971Z,74.26
2022-11-15T11:39:01.805Z,73.09
2022-11-15T11:41:37.360Z,73.10
2022-11-15T11:44:25.674Z,73.38
2022-11-15T11:47:12.341Z,73.53
2022-11-15T11:49:51.720Z,73.25
2022-11-15T11:52:30.914Z,70.95
2022-11-15T11:55:22.882Z,70.34
2022-11-15T11:58:43.934Z,71.39
2022-11-15T12:01:43.856Z,71.43
2022-11-15T12:04:41.485Z,71.08
2022-11-15T12:07:24.397Z,71.07
2022-11-15T12:10:03.329Z,70.89
2022-11-15T12:13:00.965Z,71.38
2022-11-15T12:15:40.824Z,70.89
2022-11-15T12:18:15.276Z,70.15
2022-11-15T12:21:15.348Z,69.37
2022-11-15T12:23:59.570Z,68.96
2022-11-15T12:26:46.410Z,69.36
2022-11-15T12:29:25.921Z,69.79
2022-11-15T12:31:57.893Z,68.47
2022-11-15T12:34:28.931Z,67.35
2022-11-15T12:36:56.694Z,66.43
2022-11-15T12:40:19.327Z,66.72
2022-11-15T12:43:01.738Z,67.29
2022-11-15T12:45:37.822Z,67.44
2022-11-15T12:48:17.696Z,67.27
2022-11-15T12:50:59.373Z,66.96
2022-11-15T12:53:26.448Z,67.20
2022-11-15T12:56:05.243Z,66.21
2022-11-15T12:58:49.467Z,65.30
2022-11-15T13:01:32.211Z,65.50
2022-11-15T13:04:21.134Z,65.96
2022-11-15T13:07:08.407Z,65.83
2022-11-15T13:09:38.510Z,65.30
2022-11-15T13:12:27.954Z,62.63
2022-11-15T13:15:00.449Z,63.72
2022-11-15T13:17:54.740Z,64.23
2022-11-15T13:20:29.256Z,64.09
2022-11-15T13:23:05.365Z,64.46
2022-11-15T13:26:17.388Z,64.57
2022-11-15T13:28:52.866Z,64.93
2022-11-15T13:31:41.345Z,64.62
2022-11-15T13:34:51.091Z,64.60
2022-11-15T13:37:22.404Z,65.15
2022-11-15T13:39:50.655Z,65.46
2022-11-15T13:42:24.324Z,65.37
2022-11-15T13:45:04.016Z,65.85
2022-11-15T13:47:32.713Z,65.36
2022-11-15T13:50:09.628Z,65.53
2022-11-15T13:52:44.299Z,65.80
2022-11-15T13:55:22.902Z,65.22
2022-11-15T13:57:58.028Z,65.16
2022-11-15T14:00:45.029Z,64.96
2022-11-15T14:03:23.066Z,65.27
2022-11-15T14:06:13.231Z,64.45
2022-11-15T14:09:16.892Z,64.14
2022-11-15T14:11:55.757Z,64.04
2022-11-15T14:14:26.156Z,63.83
2022-11-15T14:16:58.817Z,64.60
2022-11-15T14:19:25.713Z,63.50
2022-11-15T14:22:23.036Z,63.64
2022-11-15T14:25:13.951Z,64.41
2022-11-15T14:27:43.848Z,64.70
2022-11-15T14:30:17.728Z,65.19
2022-11-15T14:32:50.415Z,65.20
2022-11-15T14:35:23.973Z,64.42
2022-11-15T14:37:51.306Z,64.60
2022-11-15T14:40:22.673Z,64.59
2022-11-15T14:42:51.737Z,65.08
2022-11-15T14:45:23.372Z,64.92
2022-11-15T14:47:50.457Z,64.57
2022-11-15T14:50:21.529Z,64.95
2022-11-15T14:52:50.101Z,64.98
2022-11-15T14:55:37.195Z,65.07
2022-11-15T14:58:08.746Z,65.07
2022-11-15T15:00:42.070Z,65.66
2022-11-15T15:03:10.266Z,65.58
2022-11-15T15:05:43.873Z,65.45
2022-11-15T15:08:11.593Z,66.00
2022-11-15T15:10:46.180Z,66.47
2022-11-15T15:13:25.178Z,66.49
2022-11-15T15:15:53.275Z,66.66
2022-11-15T15:18:21.367Z,66.81
2022-11-15T15:21:08.110Z,66.75
2022-11-15T15:23:36.585Z,67.00
2022-11-15T15:26:03.973Z,67.72
2022-11-15T15:28:34.547Z,67.55
2022-11-15T15:31:03.094Z,67.91
2022-11-15T15:33:30.395Z,68.41
2022-11-15T15:35:57.496Z,68.80
2022-11-15T15:38:24.711Z,69.08
2022-11-15T15:40:51.978Z,69.38
2022-11-15T15:43:19.337Z,69.85
2022-11-15T15:45:46.518Z,69.98
2022-11-15T15:48:16.163Z,70.31
2022-11-15T15:50:44.389Z,70.57
2022-11-15T15:53:13.910Z,70.73
2022-11-15T15:55:41.214Z,71.09
2022-11-15T15:58:09.400Z,71.06
2022-11-15T16:00:37.800Z,71.31
2022-11-15T16:03:07.119Z,71.63
2022-11-15T16:05:34.303Z,71.63
2022-11-15T16:08:01.386Z,71.90
2022-11-15T16:10:37.866Z,71.73
2022-11-15T16:13:05.098Z,72.01
2022-11-15T16:15:32.974Z,72.04
2022-11-15T16:18:02.738Z,72.08
2022-11-15T16:20:51.017Z,72.05
2022-11-15T16:23:21.101Z,72.18
2022-11-15T16:25:52.747Z,72.18
2022-11-15T16:28:33.797Z,72.11
2022-11-15T16:31:10.353Z,71.79
2022-11-15T16:33:38.427Z,72.25
2022-11-15T16:36:16.071Z,72.16
2022-11-15T16:38:42.989Z,72.13
2022-11-15T16:41:10.031Z,72.25
2022-11-15T16:43:37.228Z,72.62
2022-11-15T16:46:25.438Z,72.55
2022-11-15T16:48:54.326Z,72.71
2022-11-15T16:51:23.044Z,72.78
2022-11-15T16:53:50.412Z,72.86
2022-11-15T16:56:36.144Z,73.18
2022-11-15T16:59:03.385Z,73.11
2022-11-15T17:01:46.752Z,73.17
2022-11-15T17:04:14.054Z,73.37
2022-11-15T17:06:43.417Z,73.49
2022-11-15T17:09:20.569Z,73.94
2022-11-15T17:11:47.595Z,74.04
2022-11-15T17:14:15.252Z,74.35
2022-11-15T17:16:44.372Z,74.66
2022-11-15T17:19:17.368Z,75.14
2022-11-15T17:21:46.023Z,75.43
2022-11-15T17:24:14.350Z,75.77
2022-11-15T17:26:42.946Z,76.46
2022-11-15T17:29:10.100Z,76.72
2022-11-15T17:31:38.397Z,77.56
2022-11-15T17:34:06.873Z,77.90
2022-11-15T17:36:34.735Z,78.50
2022-11-15T17:39:02.466Z,78.69
2022-11-15T17:41:30.000Z,78.68
2022-11-15T17:43:59.816Z,79.00
2022-11-15T17:46:28.438Z,79.25
2022-11-15T17:48:57.353Z,79.33
2022-11-15T17:51:24.753Z,79.62
2022-11-15T17:53:52.999Z,80.01
2022-11-15T17:56:27.301Z,80.29
2022-11-15T17:58:56.543Z,80.95
2022-11-15T18:01:31.282Z,81.21
2022-11-15T18:04:02.216Z,81.54
2022-11-15T18:06:34.743Z,81.79
2022-11-15T18:09:03.954Z,82.12
2022-11-15T18:11:39.280Z,82.50
2022-11-15T18:14:12.618Z,82.99
2022-11-15T18:16:40.526Z,83.45
2022-11-15T18:19:13.053Z,83.90
2022-11-15T18:21:56.330Z,84.65
2022-11-15T18:24:26.762Z,84.40
2022-11-15T18:26:53.875Z,85.15
2022-11-15T18:29:21.571Z,85.76
2022-11-15T18:31:50.554Z,85.93
2022-11-15T18:34:18.683Z,86.52
2022-11-15T18:36:46.465Z,86.91
2022-11-15T18:39:16.399Z,87.35
2022-11-15T18:41:46.529Z,87.92
2022-11-15T18:44:14.714Z,87.78
2022-11-15T18:46:44.177Z,88.09
2022-11-15T18:49:14.155Z,88.31
2022-11-15T18:51:44.150Z,88.45
2022-11-15T18:54:15.477Z,88.83
2022-11-15T18:56:46.928Z,89.07
2022-11-15T18:59:17.210Z,89.47
2022-11-15T19:01:50.001Z,89.55
2022-11-15T19:04:20.155Z,89.84
2022-11-15T19:06:50.322Z,90.19
2022-11-15T19:09:19.799Z,90.44
2022-11-15T19:11:51.609Z,90.88
2022-11-15T19:14:19.508Z,91.21
2022-11-15T19:16:50.360Z,91.45
2022-11-15T19:19:21.496Z,91.46
2022-11-15T19:21:49.003Z,91.84
2022-11-15T19:24:16.159Z,92.29
2022-11-15T19:26:43.785Z,92.52
2022-11-15T19:29:11.432Z,92.46
2022-11-15T19:31:39.096Z,92.56
2022-11-15T19:34:06.984Z,92.66
2022-11-15T19:36:45.057Z,92.79
2022-11-15T19:39:14.307Z,93.02
2022-11-15T19:41:44.208Z,93.24
2022-11-15T19:44:13.456Z,93.44
2022-11-15T19:46:41.365Z,93.85
2022-11-15T19:49:10.779Z,94.01
2022-11-15T19:51:41.579Z,94.27
2022-11-15T19:54:10.358Z,94.23
2022-11-15T19:56:39.786Z,94.35
2022-11-15T19:59:07.680Z,94.58
2022-11-15T20:01:38.885Z,94.59
2022-11-15T20:04:07.937Z,94.79
2022-11-15T20:06:40.486Z,94.89
2022-11-15T20:09:16.689Z,95.06
2022-11-15T20:11:44.197Z,95.34
2022-11-15T20:14:12.889Z,95.27
2022-11-15T20:16:40.287Z,95.47
2022-11-15T20:19:08.711Z,95.59
2022-11-15T20:21:36.147Z,95.60
2022-11-15T20:24:05.169Z,95.80
2022-11-15T20:26:32.386Z,95.63
2022-11-15T20:29:01.112Z,95.83
2022-11-15T20:31:30.037Z,96.01
2022-11-15T20:33:57.757Z,95.93
2022-11-15T20:36:25.026Z,96.03
2022-11-15T20:38:58.189Z,96.24
2022-11-15T20:41:26.930Z,96.46
2022-11-15T20:43:53.961Z,96.53
2022-11-15T20:46:21.146Z,96.45
2022-11-15T20:48:48.194Z,96.61
2022-11-15T20:51:17.814Z,96.71
2022-11-15T20:53:46.304Z,96.63
2022-11-15T20:56:17.195Z,96.83
2022-11-15T20:58:45.802Z,96.78
2022-11-15T21:01:15.542Z,96.85
2022-11-15T21:03:44.005Z,96.96
2022-11-15T21:06:11.952Z,97.04
2022-11-15T21:08:57.720Z,97.13
2022-11-15T21:11:43.927Z,97.25
2022-11-15T21:14:11.242Z,97.45
2022-11-15T21:16:38.976Z,97.35
2022-11-15T21:19:07.015Z,97.66
2022-11-15T21:21:36.321Z,97.46
2022-11-15T21:24:09.178Z,97.61
2022-11-15T21:26:37.157Z,97.63
2022-11-15T21:29:05.666Z,97.64
2022-11-15T21:31:33.075Z,97.65
2022-11-15T21:34:04.120Z,97.56
2022-11-15T21:36:31.207Z,97.45
2022-11-15T21:38:58.386Z,97.51
2022-11-15T21:41:25.622Z,97.78
2022-11-15T21:43:52.634Z,97.63
2022-11-15T21:46:19.662Z,97.76
2022-11-15T21:48:46.696Z,97.84
2022-11-15T21:51:13.762Z,97.78
2022-11-15T21:53:40.887Z,97.63
2022-11-15T21:56:08.699Z,97.76
2022-11-15T21:58:36.115Z,97.74
2022-11-15T22:01:22.558Z,97.66
2022-11-15T22:03:50.248Z,97.88
2022-11-15T22:06:18.453Z,97.99
2022-11-15T22:08:46.581Z,98.08
2022-11-15T22:11:15.103Z,98.17
2022-11-15T22:13:42.764Z,98.49
2022-11-15T22:16:11.107Z,98.41
2022-11-15T22:18:39.026Z,98.43
2022-11-15T22:21:11.702Z,98.33
2022-11-15T22:23:40.152Z,98.68
2022-11-15T22:26:10.081Z,98.75
2022-11-15T22:28:37.246Z,98.93
2022-11-15T22:31:04.801Z,98.88
2022-11-15T22:33:34.249Z,99.06
2022-11-15T22:36:02.122Z,99.24
2022-11-15T22:38:29.902Z,99.35
2022-11-15T22:40:57.748Z,99.42
2022-11-15T22:43:27.368Z,99.32
2022-11-15T22:45:57.276Z,99.32
2022-11-15T22:48:28.672Z,99.54
2022-11-15T22:50:57.434Z,99.54
2022-11-15T22:53:25.448Z,99.59
2022-11-15T22:56:04.647Z,99.51
2022-11-15T22:58:33.497Z,99.56
2022-11-15T23:01:04.316Z,99.58
2022-11-15T23:03:33.221Z,99.76
2022-11-15T23:06:07.227Z,99.94
2022-11-15T23:08:36.559Z,100.00
2022-11-15T23:11:23.733Z,99.93
2022-11-15T23:13:52.400Z,100.00
2022-11-15T23:16:24.067Z,100.00
2022-11-15T23:18:57.914Z,100.00
2022-11-15T23:21:49.226Z,99.97
2022-11-15T23:24:17.781Z,100.00
2022-11-15T23:26:48.162Z,100.00
2022-11-15T23:29:18.165Z,100.00
2022-11-15T23:32:04.557Z,100.00
2022-11-15T23:34:35.394Z,100.00
2022-11-15T23:37:06.939Z,100.00
2022-11-15T23:39:34.010Z,100.00
2022-11-15T23:42:07.499Z,100.00
2022-11-15T23:44:37.240Z,100.00
2022-11-15T23:47:04.326Z,100.00
2022-11-15T23:49:31.561Z,100.00
2022-11-15T23:51:58.622Z,100.00
2022-11-15T23:54:25.649Z,100.00
2022-11-15T23:56:52.603Z,100.00
2022-11-15T23:59:19.574Z,100.00
